createdAt,value
2022-08-12T00:02:47.262Z,61.76
2022-08-12T00:06:09.581Z,61.86
2022-08-12T00:09:30.286Z,61.68
2022-08-12T00:12:50.559Z,61.71
2022-08-12T00:16:11.501Z,62.22
2022-08-12T00:19:32.301Z,62.13
2022-08-12T00:22:53.064Z,61.78
2022-08-12T00:26:23.696Z,61.50
2022-08-12T00:29:47.942Z,61.84
2022-08-12T00:33:11.102Z,61.96
2022-08-12T00:36:35.056Z,62.35
2022-08-12T00:39:57.871Z,62.65
2022-08-12T00:43:00.123Z,62.77
2022-08-12T00:46:20.755Z,62.74
2022-08-12T00:49:24.026Z,63.33
2022-08-12T00:52:25.837Z,63.35
2022-08-12T00:55:27.797Z,63.20
2022-08-12T00:58:33.027Z,64.11
2022-08-12T01:02:02.058Z,64.49
2022-08-12T01:05:25.199Z,64.61
2022-08-12T01:08:49.842Z,64.27
2022-08-12T01:11:52.377Z,64.13
2022-08-12T01:14:54.577Z,63.87
2022-08-12T01:17:56.586Z,64.18
2022-08-12T01:21:30.661Z,64.03
2022-08-12T01:25:06.757Z,63.89
2022-08-12T01:28:13.585Z,63.79
2022-08-12T01:31:17.749Z,64.64
2022-08-12T01:34:35.923Z,64.58
2022-08-12T01:38:00.008Z,64.63
2022-08-12T01:41:03.262Z,64.72
2022-08-12T01:44:06.480Z,64.51
2022-08-12T01:47:25.788Z,64.44
2022-08-12T01:51:06.118Z,64.71
2022-08-12T01:54:12.567Z,64.74
2022-08-12T01:57:58.299Z,64.83
2022-08-12T02:00:58.973Z,64.61
2022-08-12T02:04:41.379Z,64.79
2022-08-12T02:08:20.186Z,64.75
2022-08-12T02:11:29.128Z,64.98
2022-08-12T02:14:57.713Z,65.21
2022-08-12T02:18:13.005Z,65.56
2022-08-12T02:21:36.305Z,65.42
2022-08-12T02:24:40.043Z,65.37
2022-08-12T02:27:45.734Z,65.79
2022-08-12T02:30:47.894Z,65.71
2022-08-12T02:33:49.943Z,65.64
2022-08-12T02:36:55.981Z,65.88
2022-08-12T02:40:03.504Z,65.93
2022-08-12T02:43:20.109Z,65.59
2022-08-12T02:46:34.813Z,65.39
2022-08-12T02:49:44.567Z,65.57
2022-08-12T02:52:48.126Z,65.79
2022-08-12T02:55:49.826Z,65.63
2022-08-12T02:58:51.536Z,65.78
2022-08-12T03:01:56.720Z,65.68
2022-08-12T03:05:01.344Z,65.79
2022-08-12T03:08:04.982Z,65.85
2022-08-12T03:11:23.653Z,65.99
2022-08-12T03:14:29.578Z,66.40
2022-08-12T03:17:36.631Z,66.55
2022-08-12T03:20:40.631Z,67.10
2022-08-12T03:23:45.799Z,67.37
2022-08-12T03:26:48.858Z,67.57
2022-08-12T03:29:52.336Z,67.73
2022-08-12T03:32:56.453Z,67.90
2022-08-12T03:36:01.566Z,68.17
2022-08-12T03:39:12.063Z,68.58
2022-08-12T03:42:37.548Z,68.73
2022-08-12T03:45:57.688Z,68.54
2022-08-12T03:49:17.869Z,68.36
2022-08-12T03:52:38.694Z,68.92
2022-08-12T03:55:59.637Z,69.20
2022-08-12T03:59:22.054Z,69.45
2022-08-12T04:02:25.198Z,70.00
2022-08-12T04:05:54.479Z,70.00
2022-08-12T04:08:53.929Z,70.02
2022-08-12T04:12:14.105Z,70.04
2022-08-12T04:15:19.765Z,70.41
2022-08-12T04:18:21.644Z,70.51
2022-08-12T04:21:25.246Z,70.67
2022-08-12T04:24:27.776Z,70.49
2022-08-12T04:27:31.472Z,70.42
2022-08-12T04:30:33.946Z,70.42
2022-08-12T04:33:37.099Z,70.57
2022-08-12T04:36:40.800Z,70.50
2022-08-12T04:39:44.487Z,70.50
2022-08-12T04:42:46.093Z,70.69
2022-08-12T04:45:49.562Z,70.78
2022-08-12T04:48:52.495Z,70.97
2022-08-12T04:51:59.418Z,70.98
2022-08-12T04:55:01.652Z,71.22
2022-08-12T04:58:03.409Z,71.59
2022-08-12T05:01:05.788Z,71.24
2022-08-12T05:04:09.323Z,70.81
2022-08-12T05:07:11.791Z,70.72
2022-08-12T05:10:13.596Z,70.25
2022-08-12T05:13:45.160Z,70.02
2022-08-12T05:16:46.784Z,70.09
2022-08-12T05:19:48.370Z,69.48
2022-08-12T05:22:56.886Z,69.61
2022-08-12T05:26:01.081Z,70.27
2022-08-12T05:29:03.102Z,70.68
2022-08-12T05:32:07.965Z,71.12
2022-08-12T05:35:10.526Z,71.32
2022-08-12T05:38:34.831Z,69.15
2022-08-12T05:41:37.909Z,62.80
2022-08-12T05:44:39.545Z,57.35
2022-08-12T05:47:52.915Z,57.37
2022-08-12T05:50:56.703Z,58.89
2022-08-12T05:54:00.178Z,60.66
2022-08-12T05:57:01.709Z,58.64
2022-08-12T06:00:05.059Z,58.31
2022-08-12T06:03:19.302Z,60.68
2022-08-12T06:06:23.839Z,59.55
2022-08-12T06:09:28.745Z,59.96
2022-08-12T06:12:30.765Z,58.68
2022-08-12T06:15:37.828Z,56.89
2022-08-12T06:18:40.046Z,56.29
2022-08-12T06:21:42.748Z,55.67
2022-08-12T06:24:44.356Z,55.43
2022-08-12T06:28:05.847Z,54.12
2022-08-12T06:31:26.832Z,52.91
2022-08-12T06:35:23.332Z,53.11
2022-08-12T06:37:57.015Z,52.96
2022-08-12T06:41:19.574Z,54.03
2022-08-12T06:44:22.747Z,53.31
2022-08-12T06:47:24.396Z,53.51
2022-08-12T06:50:26.795Z,53.54
2022-08-12T06:53:34.112Z,51.94
2022-08-12T06:59:58.584Z,51.43
2022-08-12T07:03:22.812Z,50.55
2022-08-12T07:06:23.988Z,50.36
2022-08-12T07:10:01.583Z,50.04
2022-08-12T07:12:49.010Z,49.96
2022-08-12T07:15:55.783Z,48.85
2022-08-12T07:18:58.960Z,49.27
2022-08-12T07:22:06.438Z,48.94
2022-08-12T07:25:27.378Z,46.54
2022-08-12T07:28:33.715Z,45.43
2022-08-12T07:31:36.917Z,45.27
2022-08-12T07:34:39.401Z,42.86
2022-08-12T07:37:42.362Z,43.53
2022-08-12T07:40:44.080Z,43.40
2022-08-12T07:43:51.986Z,43.52
2022-08-12T07:46:53.578Z,42.60
2022-08-12T07:50:05.199Z,40.42
2022-08-12T07:53:08.090Z,40.63
2022-08-12T07:56:10.909Z,41.02
2022-08-12T07:59:12.783Z,40.49
2022-08-12T08:02:14.416Z,37.90
2022-08-12T08:05:16.324Z,38.01
2022-08-12T08:08:28.620Z,37.83
2022-08-12T08:11:49.278Z,38.71
2022-08-12T08:14:52.849Z,39.00
2022-08-12T08:18:02.908Z,37.35
2022-08-12T08:21:05.153Z,39.10
2022-08-12T08:24:15.790Z,38.51
2022-08-12T08:27:17.553Z,38.47
2022-08-12T08:30:19.247Z,37.63
2022-08-12T08:33:23.464Z,37.78
2022-08-12T08:36:43.868Z,37.20
2022-08-12T08:39:47.137Z,36.49
2022-08-12T08:42:51.351Z,36.13
2022-08-12T08:45:55.785Z,35.86
2022-08-12T08:48:59.562Z,35.66
2022-08-12T08:52:02.992Z,35.23
2022-08-12T08:55:05.010Z,34.45
2022-08-12T08:58:08.723Z,34.14
2022-08-12T09:01:11.673Z,33.77
2022-08-12T09:05:12.245Z,34.03
2022-08-12T09:12:06.767Z,33.73
2022-08-12T09:14:52.699Z,33.33
2022-08-12T09:17:57.314Z,33.50
2022-08-12T09:21:01.977Z,34.81
2022-08-12T09:24:07.442Z,33.52
2022-08-12T09:27:16.463Z,33.97
2022-08-12T09:30:41.213Z,33.47
2022-08-12T09:34:31.065Z,32.20
2022-08-12T09:37:19.205Z,31.69
2022-08-12T09:40:57.962Z,31.77
2022-08-12T09:44:06.105Z,29.87
2022-08-12T09:47:10.504Z,31.51
2022-08-12T09:50:20.460Z,31.33
2022-08-12T09:53:36.522Z,31.64
2022-08-12T09:56:59.309Z,30.84
2022-08-12T10:00:15.655Z,30.13
2022-08-12T10:03:31.796Z,30.82
2022-08-12T10:06:36.673Z,28.93
2022-08-12T10:09:58.341Z,29.10
2022-08-12T10:13:33.850Z,28.65
2022-08-12T10:16:43.841Z,28.40
2022-08-12T10:19:51.552Z,29.32
2022-08-12T10:23:01.776Z,28.41
2022-08-12T10:26:38.755Z,28.45
2022-08-12T10:30:03.243Z,28.29
2022-08-12T10:33:18.649Z,27.16
2022-08-12T10:36:21.191Z,26.11
2022-08-12T10:40:00.858Z,26.18
2022-08-12T10:43:20.654Z,27.28
2022-08-12T10:46:22.429Z,28.21
2022-08-12T10:50:02.958Z,28.95
2022-08-12T10:52:56.240Z,28.16
2022-08-12T10:55:57.952Z,27.52
2022-08-12T10:59:05.488Z,28.36
2022-08-12T11:04:27.369Z,27.34
2022-08-12T11:07:09.012Z,27.71
2022-08-12T11:09:00.521Z,28.67
2022-08-12T11:12:35.370Z,28.57
2022-08-12T11:16:02.882Z,28.52
2022-08-12T11:18:55.512Z,28.32
2022-08-12T11:22:01.284Z,28.76
2022-08-12T11:25:10.486Z,27.45
2022-08-12T11:28:14.326Z,27.04
2022-08-12T11:31:17.628Z,27.62
2022-08-12T11:34:53.452Z,27.54
2022-08-12T11:37:59.213Z,27.17
2022-08-12T11:41:04.003Z,27.74
2022-08-12T11:44:35.375Z,28.42
2022-08-12T11:47:30.581Z,26.97
2022-08-12T11:50:32.626Z,27.10
2022-08-12T11:53:59.440Z,27.76
2022-08-12T11:57:01.955Z,25.87
2022-08-12T12:02:00.913Z,25.69
2022-08-12T12:03:45.984Z,26.38
2022-08-12T12:06:52.904Z,27.73
2022-08-12T12:09:55.737Z,26.61
2022-08-12T12:12:57.636Z,26.48
2022-08-12T12:16:00.162Z,26.31
2022-08-12T12:19:04.005Z,26.03
2022-08-12T12:22:05.718Z,26.36
2022-08-12T12:25:12.955Z,26.78
2022-08-12T12:28:37.046Z,27.67
2022-08-12T12:32:10.692Z,26.49
2022-08-12T12:35:13.848Z,24.96
2022-08-12T12:38:25.156Z,26.09
2022-08-12T12:42:41.794Z,25.42
2022-08-12T12:44:53.562Z,27.16
2022-08-12T12:48:07.901Z,28.05
2022-08-12T12:51:48.221Z,26.98
2022-08-12T12:54:52.661Z,26.26
2022-08-12T12:58:00.070Z,26.80
2022-08-12T13:01:04.621Z,26.42
2022-08-12T13:04:25.561Z,27.55
2022-08-12T13:07:48.872Z,27.02
2022-08-12T13:10:52.159Z,26.31
2022-08-12T13:14:08.704Z,25.45
2022-08-12T13:17:14.729Z,26.62
2022-08-12T13:20:37.467Z,26.44
2022-08-12T13:23:45.889Z,26.49
2022-08-12T13:26:49.690Z,26.98
2022-08-12T13:29:52.028Z,26.52
2022-08-12T13:32:58.908Z,26.07
2022-08-12T13:36:05.958Z,26.00
2022-08-12T13:39:11.836Z,25.28
2022-08-12T13:42:14.852Z,26.17
2022-08-12T13:45:16.872Z,25.96
2022-08-12T13:48:19.865Z,25.98
2022-08-12T13:51:24.366Z,25.77
2022-08-12T13:58:22.807Z,25.17
2022-08-12T14:01:28.438Z,25.55
2022-08-12T14:04:30.077Z,25.57
2022-08-12T14:07:48.719Z,24.59
2022-08-12T14:10:53.440Z,25.55
2022-08-12T14:14:05.175Z,24.60
2022-08-12T14:17:13.384Z,25.32
2022-08-12T14:20:21.711Z,24.80
2022-08-12T14:24:04.879Z,24.84
2022-08-12T14:27:01.885Z,25.66
2022-08-12T14:30:15.575Z,24.95
2022-08-12T14:33:44.477Z,25.11
2022-08-12T14:36:46.408Z,24.21
2022-08-12T14:39:50.685Z,24.45
2022-08-12T14:42:52.415Z,24.77
2022-08-12T14:45:56.402Z,25.71
2022-08-12T14:48:58.074Z,26.03
2022-08-12T14:53:26.743Z,26.35
2022-08-12T14:59:23.484Z,26.10
2022-08-12T15:02:28.497Z,26.05
2022-08-12T15:06:05.543Z,26.07
2022-08-12T15:08:59.753Z,25.44
2022-08-12T15:12:04.348Z,25.63
2022-08-12T15:15:06.817Z,25.57
2022-08-12T15:18:10.171Z,25.69
2022-08-12T15:21:11.878Z,26.98
2022-08-12T15:24:13.564Z,25.52
2022-08-12T15:27:22.318Z,25.75
2022-08-12T15:30:42.671Z,25.19
2022-08-12T15:33:47.534Z,25.46
2022-08-12T15:36:54.572Z,25.48
2022-08-12T15:40:01.114Z,25.95
2022-08-12T15:43:04.406Z,26.15
2022-08-12T15:46:15.277Z,25.85
2022-08-12T15:49:19.148Z,27.03
2022-08-12T15:52:27.266Z,26.02
2022-08-12T15:55:33.509Z,26.35
2022-08-12T15:58:42.852Z,26.27
2022-08-12T16:01:44.501Z,26.44
2022-08-12T16:04:50.477Z,25.85
2022-08-12T16:07:52.422Z,25.99
2022-08-12T16:10:54.617Z,27.42
2022-08-12T16:13:56.268Z,26.79
2022-08-12T16:17:01.921Z,27.43
2022-08-12T16:20:06.265Z,27.41
2022-08-12T16:23:26.630Z,26.26
2022-08-12T16:26:36.642Z,26.45
2022-08-12T16:29:52.954Z,25.89
2022-08-12T16:32:58.371Z,25.88
2022-08-12T16:36:00.570Z,25.72
2022-08-12T16:39:03.823Z,25.86
2022-08-12T16:42:05.857Z,26.52
2022-08-12T16:45:09.862Z,25.98
2022-08-12T16:48:33.822Z,26.08
2022-08-12T16:51:40.382Z,26.09
2022-08-12T16:54:44.338Z,26.04
2022-08-12T16:57:49.325Z,26.42
2022-08-12T17:00:52.674Z,25.70
2022-08-12T17:04:08.229Z,25.85
2022-08-12T17:07:16.660Z,26.18
2022-08-12T17:10:35.896Z,26.78
2022-08-12T17:13:42.873Z,26.41
2022-08-12T17:16:55.858Z,26.90
2022-08-12T17:20:36.598Z,27.19
2022-08-12T17:23:52.835Z,26.09
2022-08-12T17:26:57.178Z,26.53
2022-08-12T17:30:03.438Z,26.43
2022-08-12T17:33:09.842Z,26.74
2022-08-12T17:36:15.681Z,26.68
2022-08-12T17:39:17.718Z,27.42
2022-08-12T17:42:32.217Z,27.42
2022-08-12T17:45:42.190Z,27.49
2022-08-12T17:48:54.926Z,28.18
2022-08-12T17:52:02.369Z,28.31
2022-08-12T17:55:07.242Z,28.78
2022-08-12T17:58:35.769Z,29.22
2022-08-12T18:01:45.287Z,29.01
2022-08-12T18:05:09.581Z,29.29
2022-08-12T18:08:11.115Z,29.88
2022-08-12T18:12:04.664Z,30.66
2022-08-12T18:15:08.745Z,30.88
2022-08-12T18:18:16.699Z,31.46
2022-08-12T18:21:20.994Z,31.67
2022-08-12T18:24:29.435Z,32.26
2022-08-12T18:27:44.814Z,33.08
2022-08-12T18:30:53.292Z,34.18
2022-08-12T18:34:02.959Z,34.77
2022-08-12T18:37:26.591Z,34.81
2022-08-12T18:40:46.156Z,35.13
2022-08-12T18:43:59.128Z,35.46
2022-08-12T18:47:06.385Z,35.99
2022-08-12T18:50:13.372Z,36.90
2022-08-12T18:54:05.502Z,37.69
2022-08-12T18:56:39.473Z,37.76
2022-08-12T19:00:00.683Z,37.63
2022-08-12T19:03:06.249Z,37.67
2022-08-12T19:06:27.582Z,38.59
2022-08-12T19:09:39.230Z,39.20
2022-08-12T19:13:22.990Z,39.39
2022-08-12T19:16:27.000Z,40.00
2022-08-12T19:19:37.499Z,40.21
2022-08-12T19:22:44.067Z,40.92
2022-08-12T19:26:03.184Z,41.54
2022-08-12T19:29:07.598Z,41.69
2022-08-12T19:32:13.053Z,41.47
2022-08-12T19:38:37.845Z,42.02
2022-08-12T19:42:00.890Z,41.99
2022-08-12T19:45:12.305Z,42.56
2022-08-12T19:48:18.775Z,42.47
2022-08-12T19:51:33.353Z,42.83
2022-08-12T19:54:43.986Z,43.04
2022-08-12T19:58:01.315Z,43.60
2022-08-12T20:01:10.819Z,43.92
2022-08-12T20:04:15.665Z,44.17
2022-08-12T20:07:24.214Z,44.58
2022-08-12T20:10:37.127Z,44.80
2022-08-12T20:13:39.230Z,45.23
2022-08-12T20:16:53.272Z,45.82
2022-08-12T20:20:17.844Z,46.23
2022-08-12T20:23:23.543Z,46.25
2022-08-12T20:26:25.244Z,46.55
2022-08-12T20:29:35.560Z,46.38
2022-08-12T20:32:57.247Z,46.83
2022-08-12T20:36:13.375Z,47.33
2022-08-12T20:39:52.467Z,47.73
2022-08-12T20:42:46.247Z,47.85
2022-08-12T20:45:57.454Z,47.79
2022-08-12T20:49:14.332Z,47.77
2022-08-12T20:52:19.185Z,48.08
2022-08-12T20:55:21.015Z,48.17
2022-08-12T20:58:23.298Z,48.72
2022-08-12T21:01:36.647Z,48.84
2022-08-12T21:05:16.118Z,49.06
2022-08-12T21:08:19.726Z,49.11
2022-08-12T21:11:24.548Z,49.27
2022-08-12T21:14:39.590Z,49.69
2022-08-12T21:18:11.170Z,49.93
2022-08-12T21:21:46.881Z,50.31
2022-08-12T21:24:46.570Z,50.76
2022-08-12T21:27:58.870Z,51.10
2022-08-12T21:32:34.395Z,51.17
2022-08-12T21:34:29.451Z,51.43
2022-08-12T21:37:31.819Z,51.41
2022-08-12T21:40:51.830Z,51.20
2022-08-12T21:43:55.107Z,51.14
2022-08-12T21:47:18.271Z,51.17
2022-08-12T21:50:22.268Z,51.89
2022-08-12T21:53:31.696Z,52.22
2022-08-12T21:56:55.812Z,52.73
2022-08-12T21:59:57.482Z,52.96
2022-08-12T22:03:17.717Z,52.85
2022-08-12T22:06:43.912Z,52.64
2022-08-12T22:09:46.194Z,52.62
2022-08-12T22:12:48.034Z,52.75
2022-08-12T22:15:52.578Z,52.78
2022-08-12T22:18:57.433Z,53.18
2022-08-12T22:22:01.219Z,53.40
2022-08-12T22:25:06.654Z,53.44
2022-08-12T22:28:26.984Z,53.44
2022-08-12T22:31:40.596Z,53.17
2022-08-12T22:34:42.197Z,53.12
2022-08-12T22:37:46.276Z,53.46
2022-08-12T22:40:49.754Z,53.58
2022-08-12T22:44:10.395Z,53.76
2022-08-12T22:47:54.273Z,54.03
2022-08-12T22:50:59.410Z,54.13
2022-08-12T22:54:01.262Z,54.47
2022-08-12T22:57:03.509Z,54.31
2022-08-12T23:00:10.126Z,54.25
2022-08-12T23:03:48.490Z,53.90
2022-08-12T23:06:54.561Z,53.94
2022-08-12T23:09:56.194Z,54.43
2022-08-12T23:13:16.445Z,54.73
2022-08-12T23:16:29.358Z,54.98
2022-08-12T23:19:36.096Z,55.12
2022-08-12T23:22:40.312Z,55.21
2022-08-12T23:25:54.811Z,55.26
2022-08-12T23:29:26.133Z,55.93
2022-08-12T23:32:35.633Z,56.41
2022-08-12T23:35:53.437Z,56.44
2022-08-12T23:39:03.736Z,56.88
2022-08-12T23:42:17.079Z,57.24
2022-08-12T23:45:31.178Z,57.55
2022-08-12T23:48:34.164Z,57.29
2022-08-12T23:51:36.655Z,57.63
2022-08-12T23:54:44.979Z,58.44
2022-08-12T23:58:17.409Z,58.24
